createdAt,value
2022-08-04T00:00:19.788Z,19.10
2022-08-04T00:03:05.483Z,19.10
2022-08-04T00:06:00.169Z,19.10
2022-08-04T00:08:45.811Z,19.10
2022-08-04T00:11:20.433Z,19.10
2022-08-04T00:14:14.145Z,19.00
2022-08-04T00:16:41.735Z,19.00
2022-08-04T00:19:33.428Z,18.90
2022-08-04T00:22:06.044Z,18.90
2022-08-04T00:24:36.662Z,18.90
2022-08-04T00:27:04.239Z,18.80
2022-08-04T00:29:32.822Z,18.70
2022-08-04T00:32:02.426Z,18.70
2022-08-04T00:34:33.052Z,18.70
2022-08-04T00:37:00.629Z,18.60
2022-08-04T00:39:29.280Z,18.60
2022-08-04T00:42:02.847Z,18.50
2022-08-04T00:45:02.581Z,18.60
2022-08-04T00:47:51.588Z,18.50
2022-08-04T00:50:45.947Z,18.50
2022-08-04T00:53:19.563Z,18.50
2022-08-04T00:56:09.246Z,18.40
2022-08-04T00:58:50.900Z,18.40
2022-08-04T01:01:45.790Z,18.40
2022-08-04T01:04:31.480Z,18.30
2022-08-04T01:07:32.987Z,18.30
2022-08-04T01:10:08.280Z,18.20
2022-08-04T01:12:41.220Z,18.20
2022-08-04T01:16:00.698Z,18.20
2022-08-04T01:18:42.692Z,18.20
2022-08-04T01:21:48.010Z,18.20
2022-08-04T01:24:57.191Z,18.20
2022-08-04T01:27:58.913Z,18.20
2022-08-04T01:30:28.519Z,18.10
2022-08-04T01:33:05.149Z,18.00
2022-08-04T01:35:48.457Z,18.00
2022-08-04T01:38:21.803Z,18.00
2022-08-04T01:40:54.312Z,18.00
2022-08-04T01:43:22.017Z,17.90
2022-08-04T01:45:58.399Z,17.80
2022-08-04T01:48:27.313Z,17.90
2022-08-04T01:50:58.142Z,17.80
2022-08-04T01:53:43.112Z,17.80
2022-08-04T02:24:46.290Z,17.60
2022-08-04T02:27:25.496Z,17.50
2022-08-04T02:30:03.682Z,17.50
2022-08-04T02:32:39.773Z,17.50
2022-08-04T02:35:08.403Z,17.50
2022-08-04T02:37:36.703Z,17.40
2022-08-04T02:40:06.966Z,17.40
2022-08-04T02:42:35.597Z,17.40
2022-08-04T02:45:04.757Z,17.40
2022-08-04T02:48:28.869Z,17.40
2022-08-04T02:50:29.142Z,17.30
2022-08-04T02:53:01.435Z,17.30
2022-08-04T02:55:31.022Z,17.30
2022-08-04T02:58:02.091Z,17.30
2022-08-04T03:00:30.247Z,17.30
2022-08-04T03:03:06.159Z,17.30
2022-08-04T03:05:57.736Z,17.20
2022-08-04T03:08:55.237Z,17.20
2022-08-04T03:11:48.845Z,17.20
2022-08-04T03:14:53.293Z,17.20
2022-08-04T03:17:53.008Z,17.20
2022-08-04T03:20:29.473Z,17.20
2022-08-04T03:23:13.839Z,17.10
2022-08-04T03:26:08.630Z,17.10
2022-08-04T03:28:53.122Z,17.10
2022-08-04T03:31:54.650Z,17.00
2022-08-04T03:34:59.199Z,17.00
2022-08-04T03:37:55.105Z,17.00
2022-08-04T03:40:33.157Z,17.00
2022-08-04T03:43:57.999Z,17.00
2022-08-04T03:47:05.444Z,17.00
2022-08-04T03:49:43.084Z,17.00
2022-08-04T03:52:30.748Z,17.00
2022-08-04T03:55:26.445Z,17.00
2022-08-04T03:57:56.697Z,16.90
2022-08-04T04:00:34.907Z,16.90
2022-08-04T04:03:28.324Z,16.90
2022-08-04T04:06:31.324Z,16.90
2022-08-04T04:09:48.488Z,16.90
2022-08-04T04:12:53.682Z,16.90
2022-08-04T04:15:29.936Z,16.90
2022-08-04T04:18:42.937Z,16.90
2022-08-04T04:21:57.077Z,16.90
2022-08-04T04:24:49.909Z,16.90
2022-08-04T04:27:31.828Z,16.90
2022-08-04T04:30:06.828Z,17.00
2022-08-04T04:32:38.653Z,17.00
2022-08-04T04:35:21.077Z,17.10
2022-08-04T04:38:06.531Z,17.10
2022-08-04T04:41:08.217Z,17.10
2022-08-04T04:43:51.692Z,17.20
2022-08-04T04:49:29.352Z,17.30
2022-08-04T04:52:09.915Z,17.30
2022-08-04T04:55:06.164Z,17.30
2022-08-04T04:57:54.067Z,17.40
2022-08-04T05:00:30.137Z,17.40
2022-08-04T05:03:16.797Z,17.40
2022-08-04T05:06:01.463Z,17.40
2022-08-04T05:09:08.206Z,17.40
2022-08-04T05:11:59.907Z,17.40
2022-08-04T05:14:41.470Z,17.40
2022-08-04T05:17:34.470Z,17.40
2022-08-04T05:20:07.739Z,17.40
2022-08-04T05:22:44.819Z,17.50
2022-08-04T05:25:23.123Z,17.50
2022-08-04T05:28:03.761Z,17.50
2022-08-04T05:30:50.436Z,17.50
2022-08-04T05:33:27.176Z,17.60
2022-08-04T05:36:21.741Z,17.60
2022-08-04T05:39:00.560Z,17.60
2022-08-04T05:41:46.007Z,17.60
2022-08-04T05:44:24.746Z,17.60
2022-08-04T05:46:56.360Z,17.70
2022-08-04T05:49:25.941Z,17.70
2022-08-04T05:51:56.548Z,17.70
2022-08-04T05:54:25.147Z,17.70
2022-08-04T05:56:55.749Z,17.80
2022-08-04T05:59:26.373Z,17.90
2022-08-04T06:01:59.039Z,17.90
2022-08-04T06:04:36.658Z,18.10
2022-08-04T06:07:05.219Z,18.20
2022-08-04T06:09:33.806Z,18.30
2022-08-04T06:12:04.676Z,18.40
2022-08-04T06:14:45.690Z,18.60
2022-08-04T06:18:33.232Z,18.80
2022-08-04T06:20:20.008Z,19.10
2022-08-04T06:22:55.029Z,19.30
2022-08-04T06:25:33.666Z,19.50
2022-08-04T06:28:02.478Z,19.80
2022-08-04T06:30:32.791Z,20.00
2022-08-04T06:33:05.139Z,20.30
2022-08-04T06:35:34.322Z,20.50
2022-08-04T06:38:05.713Z,20.80
2022-08-04T06:40:35.367Z,21.10
2022-08-04T06:43:07.045Z,21.40
2022-08-04T06:45:37.455Z,21.60
2022-08-04T06:48:07.179Z,21.90
2022-08-04T06:51:24.505Z,22.10
2022-08-04T06:53:28.396Z,22.40
2022-08-04T06:55:58.009Z,22.70
2022-08-04T06:58:27.623Z,23.00
2022-08-04T07:00:56.217Z,23.30
2022-08-04T07:03:24.799Z,23.50
2022-08-04T07:05:53.397Z,23.80
2022-08-04T07:08:23.686Z,24.00
2022-08-04T07:10:55.608Z,24.20
2022-08-04T07:13:25.216Z,24.40
2022-08-04T07:15:56.834Z,24.60
2022-08-04T07:18:24.419Z,24.80
2022-08-04T07:20:54.033Z,25.00
2022-08-04T07:23:26.707Z,25.30
2022-08-04T07:26:12.350Z,25.50
2022-08-04T07:28:43.649Z,25.70
2022-08-04T07:31:31.936Z,25.90
2022-08-04T07:34:16.838Z,26.10
2022-08-04T07:36:55.714Z,26.40
2022-08-04T07:39:28.955Z,26.70
2022-08-04T07:41:59.116Z,27.00
2022-08-04T07:44:28.695Z,27.30
2022-08-04T07:46:56.455Z,27.70
2022-08-04T07:49:55.932Z,28.20
2022-08-04T07:52:17.381Z,28.70
2022-08-04T07:54:47.187Z,28.90
2022-08-04T07:57:19.569Z,29.20
2022-08-04T08:00:09.471Z,29.40
2022-08-04T08:02:41.088Z,29.70
2022-08-04T08:05:11.556Z,30.00
2022-08-04T08:07:50.171Z,30.20
2022-08-04T08:10:24.605Z,30.50
2022-08-04T08:12:54.096Z,30.80
2022-08-04T08:15:22.155Z,31.10
2022-08-04T08:17:59.955Z,31.40
2022-08-04T08:20:30.721Z,31.60
2022-08-04T08:23:00.008Z,31.80
2022-08-04T08:25:28.103Z,32.00
2022-08-04T08:27:56.303Z,32.10
2022-08-04T08:30:32.193Z,32.30
2022-08-04T08:33:05.810Z,32.50
2022-08-04T08:35:54.703Z,32.60
2022-08-04T08:38:46.830Z,32.80
2022-08-04T08:41:43.565Z,32.90
2022-08-04T08:44:48.281Z,33.10
2022-08-04T08:48:04.590Z,33.20
2022-08-04T08:50:49.745Z,33.40
2022-08-04T08:53:56.480Z,33.50
2022-08-04T08:56:43.147Z,33.60
2022-08-04T08:59:19.803Z,33.70
2022-08-04T09:02:00.151Z,33.70
2022-08-04T09:04:39.071Z,33.70
2022-08-04T09:07:39.219Z,33.80
2022-08-04T09:10:17.444Z,33.90
2022-08-04T09:12:54.067Z,34.00
2022-08-04T09:15:33.087Z,33.90
2022-08-04T09:18:12.343Z,34.00
2022-08-04T09:20:54.992Z,34.00
2022-08-04T09:23:42.669Z,34.10
2022-08-04T09:26:30.349Z,34.10
2022-08-04T09:29:06.957Z,34.10
2022-08-04T09:32:06.920Z,34.10
2022-08-04T09:35:03.415Z,34.20
2022-08-04T09:37:45.748Z,34.30
2022-08-04T09:40:31.454Z,34.40
2022-08-04T09:44:42.342Z,34.40
2022-08-04T09:46:38.245Z,34.50
2022-08-04T09:49:15.842Z,34.50
2022-08-04T09:52:07.546Z,34.50
2022-08-04T09:55:01.218Z,34.60
2022-08-04T09:57:36.846Z,34.40
2022-08-04T10:00:09.462Z,34.50
2022-08-04T10:02:48.165Z,34.60
2022-08-04T10:05:21.739Z,34.70
2022-08-04T10:08:02.133Z,34.80
2022-08-04T10:11:07.117Z,35.00
2022-08-04T10:13:40.747Z,35.10
2022-08-04T10:16:59.546Z,35.20
2022-08-04T10:19:36.209Z,35.40
2022-08-04T10:22:40.592Z,35.40
2022-08-04T10:26:07.553Z,35.50
2022-08-04T10:28:45.379Z,35.70
2022-08-04T10:31:22.027Z,35.70
2022-08-04T10:34:00.672Z,35.70
2022-08-04T10:36:37.278Z,35.80
2022-08-04T10:39:12.256Z,36.00
2022-08-04T10:42:23.665Z,35.80
2022-08-04T10:45:36.907Z,35.80
2022-08-04T10:48:17.076Z,35.90
2022-08-04T10:51:21.819Z,36.10
2022-08-04T10:53:59.489Z,36.40
2022-08-04T10:56:44.138Z,36.40
2022-08-04T10:59:20.746Z,36.40
2022-08-04T11:02:01.590Z,36.50
2022-08-04T11:04:42.055Z,36.80
2022-08-04T11:07:13.678Z,37.20
2022-08-04T11:09:44.020Z,37.60
2022-08-04T11:12:16.878Z,37.70
2022-08-04T11:15:00.545Z,37.50
2022-08-04T11:17:37.150Z,37.50
2022-08-04T11:20:36.178Z,37.50
2022-08-04T11:23:11.496Z,37.50
2022-08-04T11:26:18.990Z,37.40
2022-08-04T11:29:09.960Z,37.60
2022-08-04T11:31:48.412Z,37.90
2022-08-04T11:34:27.372Z,38.10
2022-08-04T11:37:15.048Z,38.20
2022-08-04T11:39:46.378Z,38.20
2022-08-04T11:42:29.252Z,38.20
2022-08-04T11:45:11.838Z,37.60
2022-08-04T12:55:42.585Z,35.40
2022-08-04T12:58:42.909Z,35.30
2022-08-04T13:02:10.105Z,35.30
2022-08-04T13:04:21.918Z,35.30
2022-08-04T13:07:04.057Z,35.30
2022-08-04T13:09:34.959Z,35.20
2022-08-04T13:12:06.798Z,35.10
2022-08-04T13:14:39.404Z,35.00
2022-08-04T13:17:13.474Z,35.00
2022-08-04T13:19:50.120Z,35.00
2022-08-04T13:22:27.309Z,34.90
2022-08-04T13:27:55.313Z,34.90
2022-08-04T13:30:25.212Z,34.90
2022-08-04T13:30:28.247Z,34.90
2022-08-04T13:33:01.642Z,35.00
2022-08-04T13:35:55.624Z,35.10
2022-08-04T13:38:20.110Z,35.10
2022-08-04T13:40:49.732Z,35.10
2022-08-04T13:44:15.665Z,35.10
2022-08-04T13:46:32.112Z,35.10
2022-08-04T13:51:58.074Z,35.20
2022-08-04T13:54:47.402Z,35.30
2022-08-04T13:57:30.733Z,35.30
2022-08-04T14:00:05.365Z,35.20
2022-08-04T14:02:50.008Z,35.20
2022-08-04T14:05:26.818Z,35.20
2022-08-04T14:08:05.569Z,35.10
2022-08-04T14:10:36.957Z,35.00
2022-08-04T14:13:05.498Z,35.10
2022-08-04T14:16:01.873Z,35.10
2022-08-04T14:18:30.259Z,35.10
2022-08-04T14:21:04.784Z,35.10
2022-08-04T14:23:50.968Z,35.10
2022-08-04T14:26:21.479Z,35.10
2022-08-04T14:29:26.976Z,35.00
2022-08-04T14:32:10.452Z,35.00
2022-08-04T14:34:45.348Z,35.00
2022-08-04T14:37:18.928Z,34.90
2022-08-04T14:40:17.826Z,35.00
2022-08-04T14:42:54.674Z,35.00
2022-08-04T14:45:34.350Z,35.00
2022-08-04T14:48:05.661Z,35.00
2022-08-04T14:50:39.690Z,35.00
2022-08-04T14:53:14.188Z,35.00
2022-08-04T14:55:47.613Z,35.00
2022-08-04T14:58:34.169Z,35.10
2022-08-04T15:01:11.706Z,35.20
2022-08-04T15:03:52.460Z,35.10
2022-08-04T15:06:27.486Z,35.10
2022-08-04T15:08:59.978Z,35.00
2022-08-04T15:11:29.663Z,35.00
2022-08-04T15:14:00.205Z,35.00
2022-08-04T15:16:30.538Z,35.00
2022-08-04T15:19:01.403Z,35.00
2022-08-04T15:21:29.995Z,35.00
2022-08-04T15:24:00.613Z,35.00
2022-08-04T15:26:52.326Z,35.00
2022-08-04T15:29:28.746Z,35.10
2022-08-04T15:32:09.005Z,35.10
2022-08-04T15:34:55.655Z,35.10
2022-08-04T15:37:31.874Z,35.20
2022-08-04T15:40:13.608Z,35.20
2022-08-04T15:43:26.287Z,35.20
2022-08-04T15:46:41.636Z,35.10
2022-08-04T15:48:52.604Z,35.10
2022-08-04T15:51:32.012Z,35.10
2022-08-04T15:54:03.182Z,35.00
2022-08-04T15:56:33.631Z,35.10
2022-08-04T15:59:02.074Z,35.10
2022-08-04T16:01:29.750Z,35.00
2022-08-04T16:03:59.687Z,35.00
2022-08-04T16:06:30.817Z,35.00
2022-08-04T16:09:01.501Z,34.90
2022-08-04T16:11:38.125Z,34.90
2022-08-04T16:14:07.731Z,34.80
2022-08-04T16:16:50.355Z,34.80
2022-08-04T16:19:35.255Z,34.70
2022-08-04T16:22:06.640Z,34.60
2022-08-04T16:24:39.235Z,34.50
2022-08-04T16:27:10.878Z,34.40
2022-08-04T16:29:44.780Z,34.30
2022-08-04T16:32:15.150Z,34.20
2022-08-04T16:35:01.753Z,34.10
2022-08-04T16:37:43.409Z,34.10
2022-08-04T16:40:37.179Z,34.00
2022-08-04T16:43:16.738Z,34.00
2022-08-04T16:45:59.389Z,34.00
2022-08-04T16:48:29.765Z,33.90
2022-08-04T16:51:16.674Z,33.90
2022-08-04T16:53:57.877Z,33.80
2022-08-04T16:56:36.191Z,33.80
2022-08-04T16:59:12.578Z,33.70
2022-08-04T17:01:54.277Z,33.70
2022-08-04T17:04:32.865Z,33.60
2022-08-04T17:07:02.479Z,33.60
2022-08-04T17:09:31.067Z,33.50
2022-08-04T17:12:00.680Z,33.40
2022-08-04T17:14:31.341Z,33.30
2022-08-04T17:17:01.873Z,33.20
2022-08-04T17:19:28.993Z,33.10
2022-08-04T17:22:10.571Z,33.00
2022-08-04T17:24:40.702Z,32.90
2022-08-04T17:28:09.157Z,32.90
2022-08-04T17:29:57.043Z,32.80
2022-08-04T17:32:24.825Z,32.60
2022-08-04T17:34:55.233Z,32.50
2022-08-04T17:37:39.601Z,32.40
2022-08-04T17:40:11.497Z,32.30
2022-08-04T17:48:24.682Z,32.00
2022-08-04T17:50:51.988Z,31.90
2022-08-04T17:54:02.882Z,31.70
2022-08-04T17:56:52.109Z,31.50
2022-08-04T17:59:52.344Z,31.30
2022-08-04T18:02:32.872Z,31.20
2022-08-04T18:05:07.826Z,31.00
2022-08-04T18:08:39.779Z,30.90
2022-08-04T18:10:51.606Z,30.70
2022-08-04T18:13:42.892Z,30.60
2022-08-04T18:16:22.830Z,30.40
2022-08-04T18:19:14.967Z,30.30
2022-08-04T18:21:46.042Z,30.20
2022-08-04T18:24:35.544Z,30.10
2022-08-04T18:27:17.917Z,29.90
2022-08-04T18:30:14.979Z,29.80
2022-08-04T18:32:35.154Z,29.70
2022-08-04T18:35:07.247Z,29.50
2022-08-04T18:38:06.082Z,29.40
2022-08-04T18:40:35.574Z,29.30
2022-08-04T18:43:06.810Z,29.20
2022-08-04T18:45:35.136Z,29.10
2022-08-04T18:48:03.979Z,29.10
2022-08-04T18:51:09.674Z,28.90
2022-08-04T18:53:35.490Z,28.80
2022-08-04T18:58:54.511Z,28.70
2022-08-04T19:01:22.194Z,28.50
2022-08-04T19:03:58.746Z,28.50
2022-08-04T19:06:27.409Z,28.30
2022-08-04T19:08:54.920Z,28.30
2022-08-04T19:14:13.247Z,28.10
2022-08-04T19:16:45.985Z,28.00
2022-08-04T19:19:16.436Z,28.00
2022-08-04T19:22:01.624Z,27.90
2022-08-04T19:27:19.379Z,27.60
2022-08-04T19:29:47.955Z,27.50
2022-08-04T19:32:16.582Z,27.40
2022-08-04T19:34:46.110Z,27.30
2022-08-04T19:37:58.315Z,27.20
2022-08-04T19:40:09.611Z,27.10
2022-08-04T19:42:41.063Z,26.90
2022-08-04T19:48:17.512Z,26.70
2022-08-04T19:50:47.031Z,26.70
2022-08-04T19:53:19.466Z,26.50
2022-08-04T19:55:49.929Z,26.40
2022-08-04T19:58:19.857Z,26.30
2022-08-04T20:00:53.461Z,26.30
2022-08-04T20:03:23.073Z,26.20
2022-08-04T20:06:10.726Z,26.10
2022-08-04T20:08:38.335Z,26.00
2022-08-04T20:11:19.419Z,25.90
2022-08-04T20:13:54.719Z,25.80
2022-08-04T20:16:29.452Z,25.70
2022-08-04T20:19:03.144Z,25.60
2022-08-04T20:21:53.560Z,25.60
2022-08-04T20:24:37.844Z,25.50
2022-08-04T20:27:15.936Z,25.40
2022-08-04T20:29:49.887Z,25.30
2022-08-04T20:32:24.068Z,25.20
2022-08-04T20:34:54.837Z,25.20
2022-08-04T20:37:30.151Z,25.00
2022-08-04T20:40:13.938Z,25.00
2022-08-04T20:42:45.003Z,24.90
2022-08-04T20:45:16.642Z,24.80
2022-08-04T20:47:54.106Z,24.80
2022-08-04T20:50:29.511Z,24.70
2022-08-04T20:53:00.014Z,24.70
2022-08-04T20:55:29.797Z,24.70
2022-08-04T20:58:03.196Z,24.60
2022-08-04T21:00:33.833Z,24.60
2022-08-04T21:03:02.425Z,24.60
2022-08-04T21:05:31.604Z,24.60
2022-08-04T21:07:59.638Z,24.60
2022-08-04T21:10:29.284Z,24.60
2022-08-04T21:12:57.865Z,24.60
2022-08-04T21:15:57.895Z,24.50
2022-08-04T21:18:16.726Z,24.40
2022-08-04T21:20:45.031Z,24.30
2022-08-04T21:23:15.323Z,24.30
2022-08-04T21:25:45.613Z,24.30
2022-08-04T21:28:20.451Z,24.20
2022-08-04T21:30:54.363Z,24.10
2022-08-04T21:33:36.111Z,23.90
2022-08-04T21:36:13.520Z,23.90
2022-08-04T21:38:51.802Z,23.80
2022-08-04T21:41:24.763Z,23.70
2022-08-04T21:43:55.304Z,23.70
2022-08-04T21:46:22.827Z,23.60
2022-08-04T21:48:50.472Z,23.60
2022-08-04T21:51:58.457Z,23.50
2022-08-04T21:54:15.266Z,23.50
2022-08-04T21:56:50.864Z,23.60
2022-08-04T21:59:23.774Z,23.50
2022-08-04T22:01:59.931Z,23.50
2022-08-04T22:04:28.261Z,23.50
2022-08-04T22:06:55.854Z,23.60
2022-08-04T22:09:23.431Z,23.50
2022-08-04T22:11:52.319Z,23.40
2022-08-04T22:14:27.557Z,23.30
2022-08-04T22:16:58.694Z,23.20
2022-08-04T22:19:40.822Z,23.10
2022-08-04T22:22:26.329Z,23.00
2022-08-04T22:25:06.282Z,22.90
2022-08-04T22:28:02.658Z,22.80
2022-08-04T22:30:37.003Z,22.70
2022-08-04T22:33:09.208Z,22.70
2022-08-04T22:35:49.505Z,22.60
2022-08-04T22:38:28.149Z,22.60
2022-08-04T22:41:11.111Z,22.50
2022-08-04T22:43:40.698Z,22.40
2022-08-04T22:46:11.907Z,22.40
2022-08-04T22:48:43.652Z,22.40
2022-08-04T22:51:13.218Z,22.30
2022-08-04T22:53:42.110Z,22.20
2022-08-04T22:56:37.199Z,22.10
2022-08-04T22:59:11.030Z,22.20
2022-08-04T23:01:58.977Z,22.10
2022-08-04T23:04:29.717Z,22.10
2022-08-04T23:06:57.943Z,22.10
2022-08-04T23:09:49.363Z,22.10
2022-08-04T23:12:24.435Z,22.10
2022-08-04T23:14:55.234Z,22.00
2022-08-04T23:17:25.121Z,22.00
2022-08-04T23:19:59.664Z,22.00
2022-08-04T23:22:41.188Z,21.80
2022-08-04T23:25:16.112Z,21.80
2022-08-04T23:27:51.635Z,21.80
2022-08-04T23:30:30.071Z,21.70
2022-08-04T23:32:58.125Z,21.70
2022-08-04T23:35:26.188Z,21.70
2022-08-04T23:37:57.755Z,21.70
2022-08-04T23:40:33.509Z,21.70
2022-08-04T23:43:16.989Z,21.60
2022-08-04T23:46:06.386Z,21.60
2022-08-04T23:48:36.378Z,21.50
2022-08-04T23:51:14.215Z,21.50
2022-08-04T23:54:01.758Z,21.40
2022-08-04T23:56:35.301Z,21.40
2022-08-04T23:59:03.850Z,21.40
